Decoded Metar for KTPL (TEMPLE/MILLER in TX, USA) (IATA:TPL) | Meteo·Mobile Aviation Weather
aviador You're here:

KTPL Decoded Metar

TEMPLE/MILLER in TX, USA
Report Time2018-12-10 15:51:00
UTC Time2018-12-10 16:11:07
Flight Rules vfr VFR
Wind330° at 04 kt
W.Decomp.*RWY 33: 4.0 kt HW 0.5 kt LCW
RWY 02: 2.2 kt HW 3.4 kt LCW
W.Rank330° ranks 11
Current wind is below 330° avg. (8.0)
Visibility9999 m
Phenomena:N/A
Clouds:N/A
Expected CloudBase > 3,200 ft AGL from Temp-Dew spread
CeilingNone
Temp07°C (ISA -7)
Dew Point-1°C (57% RH)
AAT3.4°C
QNH1031 hPa
Density Alt-643 ft
Elevation682 ft
Report Wrong Elevation
Raw Report
KTPL 101551Z AUTO 33004KT 10SM CLR 07/M01 A3044 RMK AO2 SLP323
T00671006 PNO $=

Extra information for KTPL:More info

Metar Taf Metar & Taf Last 4 Metars F.Rules Stats Wind Profile Meteogram Temp Stats Airport Information Weather charts Add Link Nearby VenuesMetar ALERT Operation Metar Decoded Social comments

AIRNAV info for KTPL